createdAt,value
2023-01-27T00:04:20.646Z,15.50
2023-01-27T00:09:21.969Z,14.85
2023-01-27T00:14:23.446Z,12.90
2023-01-27T00:19:26.982Z,14.93
2023-01-27T00:24:37.550Z,16.45
2023-01-27T00:29:40.427Z,14.00
2023-01-27T00:34:41.800Z,13.68
2023-01-27T00:39:43.172Z,13.20
2023-01-27T00:45:04.440Z,13.30
2023-01-27T00:50:09.280Z,10.88
2023-01-27T00:55:11.419Z,14.98
2023-01-27T01:00:14.358Z,11.70
2023-01-27T01:05:15.963Z,9.55
2023-01-27T01:10:17.465Z,10.32
2023-01-27T01:15:18.751Z,9.48
2023-01-27T01:20:20.220Z,11.07
2023-01-27T01:25:21.792Z,9.45
2023-01-27T01:30:26.175Z,8.38
2023-01-27T01:35:27.608Z,8.20
2023-01-27T01:40:29.028Z,7.70
2023-01-27T01:45:36.833Z,8.80
2023-01-27T01:50:40.910Z,8.40
2023-01-27T01:55:42.724Z,8.15
2023-01-27T02:00:45.504Z,8.50
2023-01-27T02:05:47.615Z,8.57
2023-01-27T02:10:49.547Z,7.53
2023-01-27T02:15:53.996Z,8.65
2023-01-27T02:20:56.160Z,8.80
2023-01-27T02:26:38.550Z,10.88
2023-01-27T02:31:40.567Z,9.52
2023-01-27T02:36:48.831Z,7.93
2023-01-27T02:41:54.810Z,8.52
2023-01-27T02:46:56.335Z,9.77
2023-01-27T02:51:57.771Z,7.93
2023-01-27T02:56:59.662Z,7.85
2023-01-27T03:02:01.081Z,8.77
2023-01-27T03:07:02.562Z,11.02
2023-01-27T03:12:22.518Z,8.45
2023-01-27T03:17:42.761Z,8.02
2023-01-27T03:22:44.441Z,9.57
2023-01-27T03:27:45.789Z,9.30
2023-01-27T03:32:54.240Z,7.75
2023-01-27T03:38:14.074Z,7.68
2023-01-27T03:43:33.859Z,9.38
2023-01-27T03:48:36.439Z,8.07
2023-01-27T03:53:38.436Z,10.25
2023-01-27T03:58:41.542Z,9.35
2023-01-27T04:04:02.013Z,8.63
2023-01-27T04:09:05.183Z,8.90
2023-01-27T04:14:07.639Z,7.97
2023-01-27T04:19:10.919Z,8.93
2023-01-27T04:24:22.769Z,9.30
2023-01-27T04:29:27.488Z,9.13
2023-01-27T04:34:29.121Z,7.93
2023-01-27T04:39:30.579Z,8.63
2023-01-27T04:44:32.086Z,6.97
2023-01-27T04:49:33.411Z,8.07
2023-01-27T04:54:34.896Z,8.07
2023-01-27T04:59:36.200Z,6.95
2023-01-27T05:04:37.716Z,7.90
2023-01-27T05:09:39.151Z,7.82
2023-01-27T05:14:40.572Z,7.15
2023-01-27T05:19:41.953Z,7.88
2023-01-27T05:24:44.628Z,7.05
2023-01-27T05:29:46.544Z,8.43
2023-01-27T05:34:48.067Z,6.85
2023-01-27T05:39:49.414Z,6.18
2023-01-27T05:44:50.775Z,6.30
2023-01-27T05:49:52.174Z,6.78
2023-01-27T05:54:53.478Z,7.53
2023-01-27T05:59:54.915Z,6.18
2023-01-27T06:04:56.352Z,6.05
2023-01-27T06:09:57.765Z,6.13
2023-01-27T06:15:00.425Z,6.03
2023-01-27T06:20:01.761Z,7.00
2023-01-27T06:25:03.235Z,6.82
2023-01-27T06:30:05.205Z,6.60
2023-01-27T06:35:07.091Z,6.70
2023-01-27T06:40:09.344Z,6.90
2023-01-27T06:45:12.436Z,7.07
2023-01-27T06:50:14.132Z,7.25
2023-01-27T06:55:16.805Z,7.78
2023-01-27T07:00:18.763Z,7.93
2023-01-27T07:05:20.151Z,8.57
2023-01-27T07:10:21.688Z,9.77
2023-01-27T07:15:23.032Z,9.82
2023-01-27T07:20:28.130Z,8.45
2023-01-27T07:25:32.816Z,14.98
2023-01-27T07:30:34.497Z,11.45
2023-01-27T07:35:37.237Z,8.85
2023-01-27T07:40:38.754Z,18.55
2023-01-27T07:45:40.399Z,8.70
2023-01-27T07:50:42.087Z,9.23
2023-01-27T07:55:43.623Z,9.00
2023-01-27T08:00:45.013Z,8.77
2023-01-27T08:05:46.786Z,8.93
2023-01-27T08:10:49.449Z,7.00
2023-01-27T08:15:56.055Z,8.43
2023-01-27T08:21:00.355Z,7.65
2023-01-27T08:26:04.613Z,7.87
2023-01-27T08:31:12.120Z,7.07
2023-01-27T08:36:17.008Z,7.65
2023-01-27T08:41:25.064Z,6.72
2023-01-27T08:46:27.061Z,7.05
2023-01-27T08:51:28.953Z,7.55
2023-01-27T08:56:30.697Z,7.30
2023-01-27T09:01:32.257Z,6.53
2023-01-27T09:06:33.791Z,6.78
2023-01-27T09:11:36.901Z,6.95
2023-01-27T09:16:38.381Z,7.18
2023-01-27T09:21:39.884Z,7.05
2023-01-27T09:26:41.394Z,7.55
2023-01-27T09:31:43.107Z,9.98
2023-01-27T09:36:50.499Z,6.60
2023-01-27T09:42:01.254Z,6.47
2023-01-27T09:47:27.580Z,7.35
2023-01-27T09:52:47.861Z,6.60
2023-01-27T09:58:09.728Z,6.82
2023-01-27T10:03:49.010Z,6.95
2023-01-27T10:09:18.517Z,6.75
2023-01-27T10:14:40.389Z,7.05
2023-01-27T10:19:44.474Z,6.22
2023-01-27T10:24:59.545Z,7.03
2023-01-27T10:30:14.372Z,6.03
2023-01-27T10:35:40.892Z,5.10
2023-01-27T10:40:56.893Z,6.30
2023-01-27T10:46:01.569Z,5.90
2023-01-27T10:51:11.653Z,5.70
2023-01-27T10:56:37.115Z,5.00
2023-01-27T11:06:59.539Z,4.70
2023-01-27T11:12:05.213Z,4.53
2023-01-27T11:17:18.453Z,5.07
2023-01-27T11:22:24.128Z,4.68
2023-01-27T11:27:50.437Z,4.13
2023-01-27T11:33:11.760Z,5.63
2023-01-27T11:38:16.574Z,3.22
2023-01-27T11:43:23.642Z,14.55
2023-01-27T11:48:33.960Z,8.70
2023-01-27T11:53:39.773Z,4.13
2023-01-27T11:58:49.423Z,3.28
2023-01-27T12:04:22.206Z,4.25
2023-01-27T12:09:30.518Z,2.75
2023-01-27T12:14:32.237Z,2.30
2023-01-27T12:19:41.036Z,3.00
2023-01-27T12:24:50.130Z,4.25
2023-01-27T12:29:56.891Z,2.15
2023-01-27T12:34:58.799Z,2.55
2023-01-27T12:40:03.995Z,2.22
2023-01-27T12:45:20.319Z,1.70
2023-01-27T12:50:27.988Z,1.17
2023-01-27T12:55:35.855Z,2.45
2023-01-27T13:00:37.784Z,1.30
2023-01-27T13:05:43.256Z,2.40
2023-01-27T13:10:53.912Z,1.05
2023-01-27T13:16:19.036Z,1.88
2023-01-27T13:21:24.723Z,0.82
2023-01-27T13:26:30.632Z,0.70
2023-01-27T13:32:09.267Z,0.50
2023-01-27T13:37:20.639Z,1.15
2023-01-27T13:42:46.655Z,2.13
2023-01-27T13:48:09.728Z,1.40
2023-01-27T13:53:14.977Z,2.88
2023-01-27T13:58:32.719Z,0.68
2023-01-27T14:03:47.569Z,0.93
2023-01-27T14:08:55.145Z,0.85
2023-01-27T14:14:15.083Z,1.23
2023-01-27T14:19:33.409Z,1.17
2023-01-27T14:25:06.176Z,1.80
2023-01-27T14:30:22.719Z,0.60
2023-01-27T14:35:38.983Z,0.30
2023-01-27T14:41:18.053Z,0.75
2023-01-27T14:46:22.831Z,0.63
2023-01-27T14:51:36.237Z,0.80
2023-01-27T14:57:06.314Z,1.70
2023-01-27T15:02:13.829Z,1.20
2023-01-27T15:07:43.784Z,0.60
2023-01-27T15:13:19.981Z,0.95
2023-01-27T15:18:44.719Z,0.70
2023-01-27T15:23:58.429Z,1.25
2023-01-27T15:29:00.655Z,1.15
2023-01-27T15:34:22.589Z,0.68
2023-01-27T15:39:32.387Z,1.13
2023-01-27T15:45:03.017Z,0.90
2023-01-27T15:50:06.767Z,1.25
2023-01-27T15:55:23.244Z,2.13
2023-01-27T16:00:33.327Z,0.73
2023-01-27T16:05:45.525Z,1.00
2023-01-27T16:10:47.018Z,1.30
2023-01-27T16:15:49.085Z,1.83
2023-01-27T16:21:06.917Z,7.53
2023-01-27T16:26:20.448Z,1.63
2023-01-27T16:31:30.728Z,2.30
2023-01-27T16:36:35.309Z,2.92
2023-01-27T16:41:39.940Z,4.85
2023-01-27T16:46:55.643Z,2.45
2023-01-27T16:52:01.521Z,1.50
2023-01-27T16:57:05.205Z,4.13
2023-01-27T17:02:19.973Z,2.10
2023-01-27T17:07:21.966Z,2.95
2023-01-27T17:12:43.046Z,2.13
2023-01-27T17:17:44.720Z,2.28
2023-01-27T17:22:48.939Z,2.83
2023-01-27T17:27:50.618Z,1.67
2023-01-27T17:32:57.192Z,2.60
2023-01-27T17:38:51.329Z,2.88
2023-01-27T17:43:53.777Z,2.90
2023-01-27T17:49:01.714Z,2.97
2023-01-27T17:54:16.411Z,2.53
2023-01-27T17:59:21.176Z,2.45
2023-01-27T18:04:24.068Z,2.70
2023-01-27T18:09:27.405Z,2.60
2023-01-27T18:14:34.028Z,3.13
2023-01-27T18:19:35.403Z,2.22
2023-01-27T18:24:38.279Z,2.30
2023-01-27T18:29:39.821Z,3.88
2023-01-27T18:34:50.193Z,3.40
2023-01-27T18:39:51.766Z,2.50
2023-01-27T18:44:53.865Z,3.15
2023-01-27T18:50:11.402Z,3.03
2023-01-27T18:55:19.103Z,2.53
2023-01-27T19:00:23.527Z,2.67
2023-01-27T19:05:34.953Z,2.53
2023-01-27T19:10:36.518Z,2.45
2023-01-27T19:15:41.398Z,2.72
2023-01-27T19:20:43.128Z,2.92
2023-01-27T19:25:49.250Z,2.33
2023-01-27T19:30:50.632Z,2.63
2023-01-27T19:36:00.659Z,2.35
2023-01-27T19:41:02.264Z,3.25
2023-01-27T19:46:13.499Z,3.30
2023-01-27T19:51:15.308Z,4.13
2023-01-27T19:56:20.265Z,3.67
2023-01-27T20:06:27.894Z,2.97
2023-01-27T20:11:32.393Z,3.80
2023-01-27T20:16:34.820Z,2.90
2023-01-27T20:21:36.168Z,3.35
2023-01-27T20:26:37.833Z,3.13
2023-01-27T20:31:39.470Z,3.10
2023-01-27T20:36:41.275Z,2.30
2023-01-27T20:41:42.648Z,2.90
2023-01-27T20:46:44.100Z,2.53
2023-01-27T20:51:45.473Z,2.55
2023-01-27T20:56:46.969Z,2.65
2023-01-27T21:01:48.449Z,2.80
2023-01-27T21:06:49.771Z,2.58
2023-01-27T21:11:51.123Z,2.70
2023-01-27T21:16:52.520Z,2.97
2023-01-27T21:21:56.378Z,2.80
2023-01-27T21:26:57.662Z,2.40
2023-01-27T21:31:59.411Z,3.17
2023-01-27T21:37:00.838Z,3.05
2023-01-27T21:42:02.266Z,3.58
2023-01-27T21:47:05.590Z,3.00
2023-01-27T21:52:06.938Z,3.20
2023-01-27T21:57:08.254Z,3.60
2023-01-27T22:02:14.098Z,6.53
2023-01-27T22:07:17.280Z,3.17
2023-01-27T22:12:18.765Z,3.03
2023-01-27T22:17:20.354Z,2.90
2023-01-27T22:22:21.805Z,3.30
2023-01-27T22:27:24.395Z,3.40
2023-01-27T22:32:25.798Z,3.63
2023-01-27T22:37:27.278Z,2.90
2023-01-27T22:42:28.896Z,2.70
2023-01-27T22:47:30.191Z,3.17
2023-01-27T22:52:35.281Z,3.05
2023-01-27T22:57:36.688Z,2.67
2023-01-27T23:02:38.038Z,2.60
2023-01-27T23:07:39.409Z,2.80
2023-01-27T23:12:40.762Z,3.63
2023-01-27T23:17:42.245Z,2.67
2023-01-27T23:22:43.674Z,4.10
2023-01-27T23:27:45.267Z,2.90
2023-01-27T23:32:46.630Z,2.63
2023-01-27T23:37:48.108Z,2.63
2023-01-27T23:42:49.497Z,3.28
2023-01-27T23:47:50.819Z,3.58
2023-01-27T23:52:52.309Z,3.55
2023-01-27T23:57:53.981Z,2.33
